Time;durP1;ratioP1;P1;durP2;ratioP2;P2;SDS_P1;SDS_P2;PMS_P1;PMS_P2;Temp;Humidity;BMP_temperature;BMP_pressure;BME280_temperature;BME280_humidity;BME280_pressure;Samples;Min_cycle;Max_cycle;Signal;HPM_P1;HPM_P2
2024/03/22 00:01:58;;;;;;;26.80;17.17;;;12.20;84.00;;;;;;5071839;28;20443;-35
2024/03/22 00:04:24;;;;;;;28.80;18.33;;;12.20;84.10;;;;;;5072272;28;20059;-35
2024/03/22 00:06:50;;;;;;;29.25;17.90;;;12.30;84.20;;;;;;5072114;28;20029;-34
2024/03/22 00:09:16;;;;;;;30.17;18.30;;;12.30;84.20;;;;;;5071446;28;20020;-36
2024/03/22 00:11:42;;;;;;;30.52;17.50;;;12.30;84.20;;;;;;5071692;28;20370;-36
2024/03/22 00:14:09;;;;;;;28.85;18.40;;;12.30;84.20;;;;;;5072040;28;20115;-35
2024/03/22 00:16:35;;;;;;;28.98;17.90;;;12.40;84.30;;;;;;5071683;28;20036;-34
2024/03/22 00:19:01;;;;;;;29.23;18.45;;;12.40;84.30;;;;;;5070402;28;20055;-35
2024/03/22 00:21:28;;;;;;;33.10;18.95;;;12.40;84.40;;;;;;5071829;28;20481;-36
2024/03/22 00:23:53;;;;;;;28.77;18.15;;;12.40;84.40;;;;;;5072118;28;20024;-34
2024/03/22 00:26:19;;;;;;;27.77;17.75;;;12.50;84.50;;;;;;5071879;28;20059;-35
2024/03/22 00:28:44;;;;;;;30.35;18.48;;;12.50;84.60;;;;;;5071804;28;20026;-36
2024/03/22 00:31:10;;;;;;;32.30;19.05;;;12.50;84.80;;;;;;5071771;28;20067;-35
2024/03/22 00:33:36;;;;;;;28.42;17.25;;;12.50;84.80;;;;;;5071569;28;20396;-37
2024/03/22 00:36:02;;;;;;;33.70;19.50;;;12.50;84.80;;;;;;5071557;28;20150;-36
2024/03/22 00:38:27;;;;;;;34.95;20.40;;;12.50;84.90;;;;;;5071779;28;20404;-36
2024/03/22 00:40:53;;;;;;;31.73;19.65;;;12.50;85.00;;;;;;5071420;28;20033;-37
2024/03/22 00:43:20;;;;;;;34.35;20.70;;;12.50;85.10;;;;;;5071469;28;20473;-36
2024/03/22 00:45:46;;;;;;;33.80;19.80;;;12.50;85.20;;;;;;5071495;28;20033;-36
2024/03/22 00:48:11;;;;;;;34.35;19.65;;;12.50;85.30;;;;;;5070134;28;20031;-34
2024/03/22 00:50:37;;;;;;;31.05;19.38;;;12.50;85.30;;;;;;5071506;28;20458;-35
2024/03/22 00:53:03;;;;;;;32.17;18.30;;;12.50;85.40;;;;;;5071336;28;20020;-35
2024/03/22 00:55:29;;;;;;;33.30;19.00;;;12.50;85.50;;;;;;5071733;28;20374;-35
2024/03/22 00:57:55;;;;;;;34.53;19.63;;;12.50;85.60;;;;;;5070059;28;20035;-36
2024/03/22 01:00:20;;;;;;;34.55;19.45;;;12.50;85.70;;;;;;5071579;28;20035;-34
2024/03/22 01:02:46;;;;;;;33.90;18.67;;;12.50;85.80;;;;;;5071265;28;20032;-36
2024/03/22 01:05:12;;;;;;;31.15;18.98;;;12.50;85.80;;;;;;5071321;28;20013;-35
2024/03/22 01:07:37;;;;;;;32.85;19.33;;;12.50;85.90;;;;;;5071281;28;20029;-36
2024/03/22 01:10:04;;;;;;;36.58;19.98;;;12.50;85.90;;;;;;5071346;28;20362;-35
2024/03/22 01:12:30;;;;;;;31.70;18.35;;;12.50;86.00;;;;;;5071108;28;20060;-34
2024/03/22 01:14:56;;;;;;;30.00;19.02;;;12.50;86.00;;;;;;5071446;28;20081;-36
2024/03/22 01:17:22;;;;;;;35.25;20.52;;;12.50;86.10;;;;;;5071112;28;20029;-35
2024/03/22 01:19:48;;;;;;;33.17;19.02;;;12.50;86.20;;;;;;5071447;28;20036;-36
2024/03/22 01:22:14;;;;;;;34.95;20.58;;;12.50;86.20;;;;;;5073936;28;20393;-34
2024/03/22 01:24:39;;;;;;;34.80;20.42;;;12.50;86.30;;;;;;5075058;28;20059;-35
2024/03/22 01:27:05;;;;;;;35.63;20.27;;;12.40;86.40;;;;;;5075095;28;20070;-35
2024/03/22 01:29:31;;;;;;;33.72;19.23;;;12.40;86.50;;;;;;5074112;28;20135;-35
2024/03/22 01:31:58;;;;;;;33.20;18.70;;;12.40;86.60;;;;;;5074838;28;20024;-35
2024/03/22 01:34:24;;;;;;;34.95;20.02;;;12.40;86.60;;;;;;5074894;28;20024;-35
2024/03/22 01:36:53;;;;;;;34.75;19.38;;;12.40;86.70;;;;;;5074803;28;20044;-35
2024/03/22 01:39:21;;;;;;;33.08;18.88;;;12.40;86.90;;;;;;5074805;28;20074;-35
2024/03/22 01:41:50;;;;;;;36.28;19.60;;;12.40;86.90;;;;;;5074818;28;20017;-36
2024/03/22 01:44:17;;;;;;;31.38;18.05;;;12.40;87.00;;;;;;5074839;28;20016;-35
2024/03/22 01:46:44;;;;;;;37.10;20.10;;;12.40;87.00;;;;;;5074675;28;20025;-35
2024/03/22 01:49:11;;;;;;;35.13;18.83;;;12.30;87.10;;;;;;5074640;28;20428;-36
2024/03/22 01:51:37;;;;;;;34.97;19.92;;;12.30;87.20;;;;;;5074840;28;20042;-35
2024/03/22 01:54:04;;;;;;;33.63;19.48;;;12.30;87.20;;;;;;5074424;28;20029;-35
2024/03/22 01:56:30;;;;;;;36.20;20.40;;;12.30;87.30;;;;;;5074480;28;20074;-35
2024/03/22 01:58:56;;;;;;;31.50;18.02;;;12.30;87.40;;;;;;5074401;28;20024;-36
2024/03/22 02:01:23;;;;;;;36.92;19.98;;;12.30;87.50;;;;;;5073995;28;20025;-35
2024/03/22 02:03:49;;;;;;;33.58;20.25;;;12.20;87.40;;;;;;5073963;28;20408;-34
2024/03/22 02:06:14;;;;;;;36.55;21.02;;;12.30;87.60;;;;;;5074081;28;20021;-35
2024/03/22 02:08:41;;;;;;;34.72;20.67;;;12.30;87.70;;;;;;5074332;28;20017;-34
2024/03/22 02:11:07;;;;;;;34.72;19.92;;;12.30;87.80;;;;;;5074595;28;20017;-36
2024/03/22 02:13:33;;;;;;;31.02;19.30;;;12.20;87.80;;;;;;5074402;28;20025;-34
2024/03/22 02:15:59;;;;;;;35.55;20.65;;;12.20;88.00;;;;;;5074092;28;20431;-36
2024/03/22 02:18:24;;;;;;;35.22;20.95;;;12.20;88.00;;;;;;5073933;28;20515;-34
2024/03/22 02:20:50;;;;;;;36.53;20.75;;;12.20;88.00;;;;;;5072837;28;20020;-36
2024/03/22 02:23:15;;;;;;;33.72;20.35;;;12.30;88.00;;;;;;5073787;28;20020;-36
2024/03/22 02:25:41;;;;;;;33.97;19.92;;;12.30;88.00;;;;;;5073965;28;20099;-36
2024/03/22 02:28:07;;;;;;;36.17;21.25;;;12.30;88.00;;;;;;5074046;28;20060;-36
2024/03/22 02:30:32;;;;;;;35.30;19.98;;;12.30;88.00;;;;;;5074231;28;20028;-35
2024/03/22 02:32:58;;;;;;;31.20;20.42;;;12.40;88.10;;;;;;5072907;28;20024;-36
2024/03/22 02:35:23;;;;;;;34.55;20.63;;;12.30;88.10;;;;;;5072269;28;20021;-35
2024/03/22 02:37:49;;;;;;;35.90;21.35;;;12.40;88.80;;;;;;5074057;28;20032;-35
2024/03/22 02:40:14;;;;;;;35.45;21.05;;;12.30;88.30;;;;;;5073577;28;20020;-35
2024/03/22 02:42:40;;;;;;;34.83;21.15;;;12.40;88.40;;;;;;5073576;28;20024;-36
2024/03/22 02:45:06;;;;;;;37.90;21.60;;;12.30;88.40;;;;;;5073881;28;20024;-36
2024/03/22 02:47:31;;;;;;;36.65;22.00;;;12.30;88.50;;;;;;5073811;28;20013;-35
2024/03/22 02:49:57;;;;;;;34.58;20.90;;;12.40;88.60;;;;;;5073566;28;20035;-35
2024/03/22 02:52:23;;;;;;;37.50;22.05;;;12.30;88.60;;;;;;5073362;28;20021;-36
2024/03/22 02:54:48;;;;;;;36.38;22.17;;;12.40;88.70;;;;;;5073311;28;20054;-37
2024/03/22 02:57:14;;;;;;;35.85;20.67;;;12.30;88.70;;;;;;5073366;28;20024;-35
2024/03/22 02:59:39;;;;;;;35.65;21.23;;;12.30;88.70;;;;;;5073518;28;20033;-35
2024/03/22 03:02:05;;;;;;;37.00;21.35;;;12.30;88.70;;;;;;5072955;28;20020;-35
2024/03/22 03:04:30;;;;;;;37.17;21.70;;;12.30;88.80;;;;;;5073233;28;20031;-34
2024/03/22 03:06:56;;;;;;;31.58;20.35;;;12.30;88.80;;;;;;5073236;28;20047;-36
2024/03/22 03:09:21;;;;;;;37.42;21.85;;;12.30;89.00;;;;;;5073490;28;20366;-35
2024/03/22 03:11:47;;;;;;;34.08;20.92;;;12.30;89.10;;;;;;5073055;28;20032;-36
2024/03/22 03:14:12;;;;;;;38.47;22.40;;;12.30;89.10;;;;;;5073226;28;20017;-35
2024/03/22 03:16:38;;;;;;;38.28;22.70;;;12.20;89.30;;;;;;5073345;28;20076;-36
2024/03/22 03:19:04;;;;;;;36.03;22.92;;;12.20;89.50;;;;;;5072833;28;20012;-35
2024/03/22 03:21:29;;;;;;;37.25;22.60;;;12.20;89.50;;;;;;5072830;28;20107;-35
2024/03/22 03:23:55;;;;;;;38.17;21.17;;;12.20;89.50;;;;;;5072648;28;20099;-35
2024/03/22 03:26:20;;;;;;;40.25;21.60;;;12.20;89.50;;;;;;5072768;28;20032;-36
2024/03/22 03:28:46;;;;;;;34.97;21.80;;;12.20;89.60;;;;;;5072877;28;20081;-36
2024/03/22 03:31:11;;;;;;;36.45;21.85;;;12.20;89.60;;;;;;5071290;28;20073;-34
2024/03/22 03:33:37;;;;;;;35.22;21.83;;;12.20;89.70;;;;;;5072637;28;20060;-35
2024/03/22 03:36:03;;;;;;;36.33;21.63;;;12.20;89.80;;;;;;5072623;28;20049;-34
2024/03/22 03:38:28;;;;;;;33.03;20.42;;;12.20;89.70;;;;;;5072653;28;20122;-36
2024/03/22 03:40:54;;;;;;;37.22;21.90;;;12.20;89.70;;;;;;5072424;28;20465;-34
2024/03/22 03:43:19;;;;;;;34.45;22.02;;;12.20;89.80;;;;;;5071360;28;20500;-35
2024/03/22 03:45:45;;;;;;;38.67;22.45;;;12.30;89.90;;;;;;5071633;28;20032;-35
2024/03/22 03:48:10;;;;;;;36.47;22.00;;;12.30;89.90;;;;;;5072153;28;20090;-34
2024/03/22 03:50:36;;;;;;;36.08;22.23;;;12.30;89.90;;;;;;5072424;28;20029;-36
2024/03/22 03:53:01;;;;;;;35.08;21.50;;;12.30;89.90;;;;;;5072244;28;20029;-34
2024/03/22 03:55:27;;;;;;;35.22;21.52;;;12.30;89.90;;;;;;5072484;28;20025;-36
2024/03/22 03:57:53;;;;;;;35.38;21.70;;;12.20;89.90;;;;;;5072089;28;20024;-33
2024/03/22 04:00:21;;;;;;;35.95;21.67;;;12.30;90.00;;;;;;5071840;28;20472;-35
2024/03/22 04:02:50;;;;;;;37.35;21.85;;;12.20;90.00;;;;;;5071742;28;20033;-35
2024/03/22 04:05:16;;;;;;;33.75;20.98;;;12.20;90.00;;;;;;5072047;28;20051;-35
2024/03/22 04:07:42;;;;;;;34.92;21.17;;;12.20;90.00;;;;;;5072081;28;20036;-35
2024/03/22 04:10:08;;;;;;;35.38;21.67;;;12.20;90.00;;;;;;5072145;28;20059;-35
2024/03/22 04:12:34;;;;;;;32.88;21.70;;;12.20;90.00;;;;;;5072005;28;20024;-35
2024/03/22 04:15:00;;;;;;;33.03;21.23;;;12.30;90.00;;;;;;5071746;28;20021;-36
2024/03/22 04:17:25;;;;;;;38.83;22.60;;;12.30;90.00;;;;;;5071691;28;20024;-35
2024/03/22 04:19:52;;;;;;;35.65;22.23;;;12.30;90.10;;;;;;5072045;28;20058;-37
2024/03/22 04:22:17;;;;;;;37.22;22.02;;;12.30;90.10;;;;;;5071894;28;20062;-35
2024/03/22 04:24:43;;;;;;;34.63;21.75;;;12.30;90.10;;;;;;5071612;28;20021;-34
2024/03/22 04:27:08;;;;;;;35.95;23.13;;;12.30;90.10;;;;;;5071756;28;20040;-36
2024/03/22 04:29:34;;;;;;;35.92;22.45;;;12.20;90.10;;;;;;5071786;28;20490;-34
2024/03/22 04:32:00;;;;;;;34.35;21.88;;;12.20;90.10;;;;;;5071551;28;20025;-34
2024/03/22 04:34:25;;;;;;;39.50;23.67;;;12.20;90.20;;;;;;5071534;28;20512;-35
2024/03/22 04:36:53;;;;;;;39.78;23.77;;;12.20;90.30;;;;;;5071759;28;20074;-36
2024/03/22 04:39:20;;;;;;;36.33;22.73;;;12.20;90.40;;;;;;5071728;28;20112;-35
2024/03/22 04:41:45;;;;;;;35.10;21.63;;;12.20;90.40;;;;;;5071454;28;20020;-34
2024/03/22 04:44:11;;;;;;;37.20;22.50;;;12.20;90.40;;;;;;5071576;28;20016;-35
2024/03/22 04:46:36;;;;;;;37.92;23.58;;;12.10;90.40;;;;;;5071718;28;20062;-36
2024/03/22 04:49:02;;;;;;;35.65;23.45;;;12.20;90.50;;;;;;5071402;28;20017;-35
2024/03/22 04:51:28;;;;;;;36.35;23.10;;;12.10;90.50;;;;;;5071630;28;20427;-36
2024/03/22 04:53:53;;;;;;;37.03;22.13;;;12.10;90.50;;;;;;5071244;28;20032;-36
2024/03/22 04:56:19;;;;;;;34.75;22.23;;;12.10;90.50;;;;;;5070975;28;20054;-37
2024/03/22 04:58:44;;;;;;;35.13;22.45;;;12.10;90.50;;;;;;5071344;28;20074;-37
2024/03/22 05:01:12;;;;;;;34.78;22.23;;;12.10;90.50;;;;;;5072022;28;20035;-34
2024/03/22 05:03:38;;;;;;;36.15;22.10;;;12.10;90.50;;;;;;5071031;28;20043;-36
2024/03/22 05:06:06;;;;;;;35.65;21.33;;;12.10;90.40;;;;;;5071561;28;20021;-40
2024/03/22 05:08:31;;;;;;;34.75;22.45;;;12.10;90.40;;;;;;5071610;28;20477;-35
2024/03/22 05:10:57;;;;;;;35.75;22.33;;;12.10;90.40;;;;;;5070007;28;20111;-35
2024/03/22 05:13:23;;;;;;;37.50;22.75;;;12.00;90.40;;;;;;5071062;28;20067;-35
2024/03/22 05:15:48;;;;;;;32.63;20.98;;;12.00;90.30;;;;;;5071381;28;20025;-35
2024/03/22 05:18:14;;;;;;;32.47;20.40;;;12.00;90.30;;;;;;5071186;28;20025;-36
2024/03/22 05:20:39;;;;;;;36.17;20.45;;;12.00;90.30;;;;;;5071176;28;20507;-35
2024/03/22 05:23:05;;;;;;;33.80;20.20;;;12.00;90.30;;;;;;5070973;28;20035;-34
2024/03/22 05:25:30;;;;;;;32.25;20.75;;;11.90;90.30;;;;;;5071434;28;20457;-34
2024/03/22 05:27:56;;;;;;;31.88;20.02;;;11.90;90.30;;;;;;5071152;28;20381;-35
2024/03/22 05:30:21;;;;;;;34.95;20.65;;;11.90;90.30;;;;;;5071106;28;20024;-34
2024/03/22 05:32:49;;;;;;;32.13;19.85;;;11.80;90.20;;;;;;5071000;28;20020;-35
2024/03/22 05:35:14;;;;;;;34.05;19.75;;;11.80;90.20;;;;;;5071340;28;20021;-35
2024/03/22 05:37:40;;;;;;;32.58;20.48;;;11.80;90.30;;;;;;5070945;28;20511;-35
2024/03/22 05:40:06;;;;;;;32.58;19.67;;;11.80;90.30;;;;;;5070966;28;20366;-34
2024/03/22 05:42:32;;;;;;;29.35;19.27;;;11.80;90.30;;;;;;5069359;28;20029;-34
2024/03/22 05:44:57;;;;;;;30.38;19.15;;;11.80;90.30;;;;;;5071241;28;20334;-36
2024/03/22 05:47:23;;;;;;;31.02;19.45;;;11.80;90.30;;;;;;5070886;28;20078;-34
2024/03/22 05:49:49;;;;;;;29.75;18.98;;;11.80;90.30;;;;;;5071001;28;20020;-36
2024/03/22 05:52:14;;;;;;;30.77;19.58;;;11.70;90.20;;;;;;5070770;28;20029;-35
2024/03/22 05:54:40;;;;;;;31.80;18.90;;;11.70;90.20;;;;;;5070928;28;20436;-37
2024/03/22 05:57:06;;;;;;;31.63;19.20;;;11.70;90.10;;;;;;5071228;28;20020;-36
2024/03/22 05:59:32;;;;;;;27.88;17.67;;;11.70;90.10;;;;;;5070836;28;20035;-36
2024/03/22 06:01:57;;;;;;;28.65;18.05;;;11.70;90.00;;;;;;5069214;28;20030;-41
2024/03/22 06:04:26;;;;;;;29.67;17.70;;;11.70;89.90;;;;;;5071074;28;20021;-36
2024/03/22 06:06:51;;;;;;;30.95;18.25;;;11.70;89.80;;;;;;5070706;28;20021;-38
2024/03/22 06:09:23;;;;;;;29.25;16.48;;;11.70;89.70;;;;;;5073696;28;20025;-35
2024/03/22 06:11:52;;;;;;;28.88;17.83;;;11.70;89.70;;;;;;5074434;28;20024;-37
2024/03/22 06:14:18;;;;;;;31.00;18.80;;;11.70;89.40;;;;;;5074100;28;20100;-35
2024/03/22 06:16:43;;;;;;;30.15;17.67;;;11.70;89.40;;;;;;5074453;28;20051;-35
2024/03/22 06:19:09;;;;;;;29.02;17.75;;;11.70;89.30;;;;;;5074140;28;20473;-37
2024/03/22 06:21:35;;;;;;;28.40;17.40;;;11.70;89.20;;;;;;5074237;28;20025;-35
2024/03/22 06:24:01;;;;;;;25.05;15.77;;;11.70;89.20;;;;;;5073389;28;20041;-37
2024/03/22 06:26:26;;;;;;;25.08;16.30;;;11.70;89.20;;;;;;5073994;28;20329;-36
2024/03/22 06:28:52;;;;;;;25.50;16.48;;;11.70;89.20;;;;;;5073958;28;20108;-35
2024/03/22 06:31:17;;;;;;;27.80;16.33;;;11.70;89.10;;;;;;5072665;28;20032;-38
2024/03/22 06:33:43;;;;;;;26.17;16.13;;;11.80;89.00;;;;;;5073612;28;20123;-35
2024/03/22 06:36:08;;;;;;;26.13;16.30;;;11.80;88.90;;;;;;5073503;28;20048;-37
2024/03/22 06:38:34;;;;;;;26.58;15.98;;;11.80;89.20;;;;;;5073873;28;20443;-34
2024/03/22 06:41:00;;;;;;;27.83;16.70;;;11.80;88.70;;;;;;5073910;28;20024;-37
2024/03/22 06:43:25;;;;;;;25.30;16.08;;;11.80;88.60;;;;;;5073747;28;20033;-37
2024/03/22 06:45:51;;;;;;;28.67;17.65;;;11.80;88.60;;;;;;5073950;28;20035;-35
2024/03/22 06:48:17;;;;;;;24.00;16.42;;;11.80;88.50;;;;;;5073400;28;20059;-35
2024/03/22 06:50:42;;;;;;;24.60;16.05;;;11.80;88.40;;;;;;5073367;28;20059;-34
2024/03/22 06:53:09;;;;;;;26.83;16.80;;;11.80;88.40;;;;;;5073432;28;20251;-35
2024/03/22 06:55:35;;;;;;;25.05;16.65;;;11.80;88.30;;;;;;5073604;28;20362;-34
2024/03/22 06:58:01;;;;;;;24.83;15.27;;;11.80;88.30;;;;;;5073529;28;20040;-36
2024/03/22 07:00:26;;;;;;;27.42;17.45;;;11.80;88.30;;;;;;5073204;28;20385;-33
2024/03/22 07:02:52;;;;;;;26.15;16.00;;;11.80;88.20;;;;;;5073036;28;20029;-35
2024/03/22 07:05:17;;;;;;;25.00;15.32;;;11.90;88.20;;;;;;5073254;28;20059;-35
2024/03/22 07:07:43;;;;;;;23.90;15.32;;;11.90;88.10;;;;;;5072961;28;20066;-35
2024/03/22 07:10:09;;;;;;;24.02;15.13;;;11.90;88.00;;;;;;5073243;28;20024;-35
2024/03/22 07:12:35;;;;;;;25.50;15.90;;;11.90;87.90;;;;;;5073177;28;20473;-48
2024/03/22 07:15:02;;;;;;;25.98;16.08;;;11.90;87.90;;;;;;5073181;28;20025;-36
2024/03/22 07:17:28;;;;;;;24.05;15.75;;;11.90;87.90;;;;;;5072861;28;20100;-35
2024/03/22 07:19:54;;;;;;;26.55;16.15;;;11.90;87.80;;;;;;5072915;28;20024;-35
2024/03/22 07:22:20;;;;;;;25.40;15.85;;;11.90;87.60;;;;;;5073145;28;20021;-36
2024/03/22 07:24:47;;;;;;;24.50;15.88;;;12.00;87.80;;;;;;5072862;28;20028;-35
2024/03/22 07:27:14;;;;;;;24.55;16.25;;;12.00;87.70;;;;;;5073057;28;20074;-34
2024/03/22 07:29:39;;;;;;;26.95;17.50;;;12.10;87.70;;;;;;5073184;28;20017;-35
2024/03/22 07:32:05;;;;;;;29.35;17.15;;;12.10;87.30;;;;;;5073102;28;20043;-36
2024/03/22 07:34:31;;;;;;;26.17;16.60;;;12.10;87.20;;;;;;5072674;28;20020;-36
2024/03/22 07:36:57;;;;;;;22.80;15.02;;;12.20;87.20;;;;;;5071283;28;20052;-37
2024/03/22 07:39:22;;;;;;;25.02;16.17;;;12.20;87.00;;;;;;5072826;28;20024;-37
2024/03/22 07:41:49;;;;;;;24.10;15.77;;;12.20;86.80;;;;;;5072221;28;20029;-34
2024/03/22 07:44:17;;;;;;;25.02;15.95;;;12.20;86.90;;;;;;5072740;28;20013;-34
2024/03/22 07:46:45;;;;;;;22.13;14.70;;;12.20;86.90;;;;;;5072495;28;20016;-35
2024/03/22 07:49:12;;;;;;;26.35;16.73;;;12.20;86.80;;;;;;5071073;28;20024;-37
2024/03/22 07:51:37;;;;;;;25.20;15.30;;;12.30;86.70;;;;;;5071095;28;20024;-34
2024/03/22 07:54:03;;;;;;;23.48;16.58;;;12.20;86.60;;;;;;5071796;28;20027;-34
2024/03/22 07:56:28;;;;;;;25.90;15.85;;;12.30;86.70;;;;;;5072391;28;20116;-36
2024/03/22 07:58:55;;;;;;;28.40;16.17;;;12.20;86.60;;;;;;5072581;28;20551;-39
2024/03/22 08:01:21;;;;;;;26.27;16.52;;;12.20;86.50;;;;;;5072476;28;20024;-36
2024/03/22 08:03:46;;;;;;;24.10;16.08;;;12.10;86.50;;;;;;5072039;28;20519;-34
2024/03/22 08:06:12;;;;;;;22.92;15.20;;;12.10;86.70;;;;;;5072345;28;20069;-36
2024/03/22 08:08:38;;;;;;;25.35;16.13;;;12.10;86.70;;;;;;5072156;28;20058;-36
2024/03/22 08:11:03;;;;;;;24.17;15.38;;;12.10;86.70;;;;;;5072150;28;20091;-35
2024/03/22 08:13:29;;;;;;;23.55;16.42;;;12.10;86.80;;;;;;5071970;28;20044;-35
2024/03/22 08:15:54;;;;;;;22.77;15.32;;;12.10;86.80;;;;;;5071939;28;20021;-35
2024/03/22 08:18:20;;;;;;;25.90;16.80;;;12.20;86.70;;;;;;5071751;28;20050;-36
2024/03/22 08:20:45;;;;;;;23.73;15.95;;;12.20;86.50;;;;;;5072038;28;20024;-33
2024/03/22 08:23:11;;;;;;;26.20;16.40;;;12.20;86.60;;;;;;5072046;28;20025;-36
2024/03/22 08:25:37;;;;;;;28.73;18.70;;;12.20;86.70;;;;;;5071777;28;20027;-35
2024/03/22 08:28:02;;;;;;;24.05;16.10;;;12.20;86.60;;;;;;5072210;28;20460;-34
2024/03/22 08:30:28;;;;;;;25.63;16.83;;;12.10;86.60;;;;;;5071339;28;20033;-35
2024/03/22 08:32:54;;;;;;;27.70;17.92;;;12.20;86.80;;;;;;5070220;28;20032;-35
2024/03/22 08:35:19;;;;;;;26.55;17.58;;;12.20;87.40;;;;;;5070440;28;20021;-36
2024/03/22 08:37:45;;;;;;;26.27;17.73;;;12.20;86.70;;;;;;5071207;28;20071;-35
2024/03/22 08:40:12;;;;;;;29.73;18.58;;;12.30;86.70;;;;;;5071907;28;20369;-35
2024/03/22 08:42:37;;;;;;;28.38;17.52;;;12.30;86.60;;;;;;5071464;28;20037;-35
2024/03/22 08:45:04;;;;;;;28.75;18.70;;;12.30;86.50;;;;;;5071651;28;20586;-35
2024/03/22 08:47:31;;;;;;;31.92;19.42;;;12.30;86.40;;;;;;5071445;28;20059;-36
2024/03/22 08:49:57;;;;;;;31.10;20.05;;;12.30;86.30;;;;;;5071432;28;20100;-35
2024/03/22 08:52:23;;;;;;;34.35;19.90;;;12.30;86.30;;;;;;5071552;28;20028;-36
2024/03/22 08:54:50;;;;;;;30.38;19.15;;;12.30;86.30;;;;;;5071814;28;20389;-37
2024/03/22 08:57:16;;;;;;;30.92;21.05;;;12.30;86.30;;;;;;5071466;28;20079;-35
2024/03/22 08:59:41;;;;;;;31.33;19.83;;;12.30;86.30;;;;;;5070136;28;20469;-37
2024/03/22 09:02:07;;;;;;;31.80;21.17;;;12.30;86.40;;;;;;5071121;28;20436;-34
2024/03/22 09:04:32;;;;;;;36.13;21.60;;;12.20;86.30;;;;;;5071340;28;20081;-35
2024/03/22 09:06:58;;;;;;;32.25;20.52;;;12.20;86.60;;;;;;5071288;28;20025;-36
2024/03/22 09:09:24;;;;;;;33.65;21.30;;;12.20;86.80;;;;;;5071474;28;20028;-35
2024/03/22 09:11:49;;;;;;;31.45;21.67;;;12.20;87.10;;;;;;5071282;28;20024;-35
2024/03/22 09:14:15;;;;;;;34.67;21.42;;;12.10;87.30;;;;;;5071316;28;20074;-36
2024/03/22 09:16:40;;;;;;;31.98;21.35;;;12.10;87.60;;;;;;5071271;28;20035;-37
2024/03/22 09:19:06;;;;;;;31.20;21.38;;;12.10;87.70;;;;;;5071168;28;20023;-35
2024/03/22 09:21:32;;;;;;;38.20;22.50;;;12.10;87.90;;;;;;5071590;28;20046;-36
2024/03/22 09:23:57;;;;;;;34.83;22.92;;;12.10;88.00;;;;;;5071011;28;20024;-35
2024/03/22 09:26:23;;;;;;;33.95;22.05;;;12.10;88.00;;;;;;5071525;28;20051;-36
2024/03/22 09:28:50;;;;;;;34.70;21.63;;;12.00;88.00;;;;;;5071106;28;20064;-38
2024/03/22 09:31:16;;;;;;;34.97;21.88;;;12.00;88.10;;;;;;5071603;28;20029;-37
2024/03/22 09:33:42;;;;;;;34.67;22.30;;;12.00;88.10;;;;;;5071440;28;20028;-37
2024/03/22 09:36:08;;;;;;;34.60;20.50;;;12.00;88.20;;;;;;5071049;28;20060;-35
2024/03/22 09:38:33;;;;;;;38.65;22.05;;;12.00;88.20;;;;;;5070879;28;20021;-35
2024/03/22 09:40:59;;;;;;;36.35;21.90;;;12.00;88.30;;;;;;5071274;28;20024;-35
2024/03/22 09:43:27;;;;;;;37.03;21.92;;;12.00;88.40;;;;;;5073933;28;20456;-35
2024/03/22 09:45:53;;;;;;;32.28;21.52;;;12.00;88.40;;;;;;5075156;28;20036;-36
2024/03/22 09:48:19;;;;;;;33.85;21.33;;;12.00;88.40;;;;;;5074909;28;20024;-35
2024/03/22 09:50:48;;;;;;;32.15;20.73;;;12.00;88.40;;;;;;5074602;28;20021;-36
2024/03/22 09:53:18;;;;;;;34.15;22.23;;;12.00;88.50;;;;;;5074822;28;20024;-35
2024/03/22 09:55:48;;;;;;;31.83;21.25;;;12.00;88.40;;;;;;5074706;28;20051;-35
2024/03/22 09:58:16;;;;;;;33.50;20.63;;;12.00;88.30;;;;;;5074620;28;20025;-36
2024/03/22 10:00:42;;;;;;;32.40;20.95;;;12.00;88.30;;;;;;5074753;28;20495;-36
2024/03/22 10:03:09;;;;;;;32.33;20.65;;;12.00;88.30;;;;;;5074336;28;20037;-34
2024/03/22 10:05:35;;;;;;;34.08;20.55;;;12.00;88.20;;;;;;5074494;28;20415;-34
2024/03/22 10:08:01;;;;;;;38.58;23.40;;;12.00;88.20;;;;;;5074325;28;20043;-36
2024/03/22 10:10:27;;;;;;;32.80;21.75;;;12.00;88.10;;;;;;5074647;28;20496;-43
2024/03/22 10:12:53;;;;;;;35.88;21.75;;;12.00;88.10;;;;;;5074333;28;20025;-35
2024/03/22 10:15:18;;;;;;;33.17;21.35;;;12.00;88.10;;;;;;5074548;28;20025;-35
2024/03/22 10:17:44;;;;;;;32.28;21.50;;;12.10;88.20;;;;;;5074146;28;20031;-35
2024/03/22 10:20:13;;;;;;;34.20;21.20;;;12.10;88.20;;;;;;5074473;28;20020;-36
2024/03/22 10:22:59;;;;;;;30.58;21.20;;;12.10;88.30;;;;;;5074288;28;20499;-36
2024/03/22 10:25:27;;;;;;;32.28;21.17;;;12.10;88.60;;;;;;5074415;28;20048;-34
2024/03/22 10:27:54;;;;;;;28.70;19.73;;;12.00;88.80;;;;;;5074146;28;20020;-36
2024/03/22 10:30:20;;;;;;;28.08;19.10;;;12.00;89.30;;;;;;5072890;28;20032;-36
2024/03/22 10:32:47;;;;;;;32.75;20.20;;;11.90;89.40;;;;;;5072590;28;20622;-36
2024/03/22 10:35:14;;;;;;;30.80;18.95;;;11.90;89.70;;;;;;5074062;28;20020;-36
2024/03/22 10:37:40;;;;;;;26.45;18.17;;;11.90;90.00;;;;;;5073835;28;20135;-36
2024/03/22 10:40:11;;;;;;;31.75;19.13;;;11.90;90.00;;;;;;5073987;28;20017;-34
2024/03/22 10:42:38;;;;;;;25.65;17.88;;;11.90;90.10;;;;;;5072175;28;20029;-36
2024/03/22 10:45:04;;;;;;;25.27;17.13;;;11.90;90.10;;;;;;5074068;28;20028;-36
2024/03/22 10:47:31;;;;;;;24.95;17.60;;;12.00;90.20;;;;;;5073854;28;20025;-36
2024/03/22 10:50:08;;;;;;;24.92;16.88;;;11.90;90.10;;;;;;5073749;28;20058;-36
2024/03/22 10:52:50;;;;;;;25.48;16.60;;;12.00;90.50;;;;;;5073755;28;20028;-34
2024/03/22 10:55:28;;;;;;;23.42;16.42;;;11.90;90.30;;;;;;5073271;28;20024;-36
2024/03/22 10:57:54;;;;;;;24.65;16.58;;;11.90;90.40;;;;;;5073963;28;20029;-36
2024/03/22 11:00:31;;;;;;;24.58;15.50;;;11.90;90.50;;;;;;5073904;28;20047;-36
2024/03/22 11:02:56;;;;;;;25.38;16.08;;;11.80;90.60;;;;;;5073187;28;20025;-35
2024/03/22 11:05:22;;;;;;;25.48;16.58;;;11.90;90.70;;;;;;5073290;28;20020;-36
2024/03/22 11:07:57;;;;;;;26.73;16.80;;;11.90;90.70;;;;;;5073628;28;20047;-35
2024/03/22 11:10:29;;;;;;;27.80;17.48;;;11.90;90.70;;;;;;5073404;28;20025;-39
2024/03/22 11:12:54;;;;;;;26.95;18.45;;;11.90;90.70;;;;;;5073078;28;20024;-34
2024/03/22 11:15:21;;;;;;;23.63;17.27;;;11.90;90.80;;;;;;5073079;28;20029;-35
2024/03/22 11:17:47;;;;;;;24.67;15.93;;;11.80;90.80;;;;;;5072974;28;20028;-35
2024/03/22 11:20:12;;;;;;;23.73;16.42;;;11.80;90.90;;;;;;5073102;28;20020;-36
2024/03/22 11:22:38;;;;;;;19.70;13.43;;;11.90;90.90;;;;;;5072699;28;20028;-34
2024/03/22 11:25:04;;;;;;;22.08;14.00;;;11.90;90.90;;;;;;5073147;28;20056;-35
2024/03/22 11:27:29;;;;;;;21.15;13.50;;;11.90;90.80;;;;;;5072851;28;20021;-36
2024/03/22 11:29:55;;;;;;;18.58;12.95;;;11.90;90.90;;;;;;5072760;28;20453;-35
2024/03/22 11:32:22;;;;;;;18.83;12.57;;;11.90;90.90;;;;;;5054843;28;20060;-36
2024/03/22 11:34:48;;;;;;;19.25;12.32;;;11.90;91.00;;;;;;5071356;28;20783;-35
2024/03/22 11:37:13;;;;;;;17.58;11.45;;;11.90;91.10;;;;;;5072392;28;20133;-35
2024/03/22 11:39:39;;;;;;;15.60;11.55;;;11.80;91.10;;;;;;5072563;28;20024;-35
2024/03/22 11:42:07;;;;;;;16.00;11.05;;;11.80;91.20;;;;;;5072362;28;20489;-35
2024/03/22 11:44:37;;;;;;;11.63;9.70;;;11.80;91.30;;;;;;5072501;28;20128;-34
2024/03/22 11:47:03;;;;;;;11.25;9.13;;;11.80;91.30;;;;;;5072572;28;20126;-36
2024/03/22 11:49:29;;;;;;;13.18;9.20;;;11.90;91.40;;;;;;5072331;28;20027;-35
2024/03/22 11:51:56;;;;;;;12.50;8.73;;;11.90;91.30;;;;;;5072599;28;20410;-35
2024/03/22 11:54:23;;;;;;;14.55;10.13;;;11.90;91.40;;;;;;5072634;28;20016;-36
2024/03/22 11:56:49;;;;;;;11.18;8.50;;;11.90;91.40;;;;;;5072197;28;20020;-36
2024/03/22 11:59:14;;;;;;;10.40;7.85;;;11.90;91.50;;;;;;5072489;28;20021;-34
2024/03/22 12:01:41;;;;;;;9.88;7.22;;;11.90;91.50;;;;;;5071960;28;20530;-34
2024/03/22 12:04:07;;;;;;;9.23;6.95;;;11.80;91.60;;;;;;5071907;28;20388;-32
2024/03/22 12:06:34;;;;;;;9.60;7.05;;;11.90;91.60;;;;;;5071723;28;20033;-36
2024/03/22 12:09:00;;;;;;;8.00;6.55;;;11.90;91.60;;;;;;5072435;28;20435;-36
2024/03/22 12:11:25;;;;;;;10.82;7.00;;;11.90;91.60;;;;;;5072038;28;20040;-35
2024/03/22 12:13:51;;;;;;;9.57;6.93;;;11.90;91.60;;;;;;5071776;28;20090;-35
2024/03/22 12:16:16;;;;;;;8.70;7.10;;;11.90;91.70;;;;;;5071992;28;20066;-34
2024/03/22 12:18:42;;;;;;;7.75;6.63;;;11.90;91.70;;;;;;5071775;28;20028;-34
2024/03/22 12:21:08;;;;;;;7.68;6.85;;;11.80;91.70;;;;;;5071901;28;20031;-34
2024/03/22 12:23:33;;;;;;;8.88;6.93;;;11.80;91.70;;;;;;5071688;28;20032;-37